createdAt,value
2019-03-16T00:00:32.516Z,13.80
2019-03-16T00:05:34.035Z,9.20
2019-03-16T00:10:35.552Z,12.53
2019-03-16T00:15:37.067Z,9.70
2019-03-16T00:20:38.596Z,12.43
2019-03-16T00:25:40.128Z,12.97
2019-03-16T00:30:41.618Z,18.50
2019-03-16T00:35:43.189Z,11.63
2019-03-16T00:40:44.699Z,12.93
2019-03-16T00:45:46.248Z,16.43
2019-03-16T00:50:47.726Z,17.30
2019-03-16T00:55:49.290Z,24.40
2019-03-16T01:00:50.792Z,21.57
2019-03-16T01:05:52.369Z,13.97
2019-03-16T01:10:53.849Z,22.60
2019-03-16T01:15:55.370Z,14.63
2019-03-16T01:20:56.867Z,22.00
2019-03-16T01:25:58.386Z,16.90
2019-03-16T01:30:59.970Z,20.03
2019-03-16T01:36:01.480Z,16.67
2019-03-16T01:41:03.175Z,21.23
2019-03-16T01:46:04.689Z,18.53
2019-03-16T01:51:06.196Z,15.43
2019-03-16T01:56:07.768Z,9.03
2019-03-16T02:01:09.309Z,13.27
2019-03-16T02:06:11.735Z,11.27
2019-03-16T02:11:13.233Z,13.27
2019-03-16T02:16:15.296Z,13.47
2019-03-16T02:21:16.792Z,11.37
2019-03-16T02:26:18.317Z,11.60
2019-03-16T02:31:19.842Z,17.57
2019-03-16T02:36:21.368Z,13.80
2019-03-16T02:41:22.905Z,19.83
2019-03-16T02:46:24.442Z,15.37
2019-03-16T02:51:26.193Z,18.23
2019-03-16T02:56:27.721Z,16.73
2019-03-16T03:01:29.255Z,13.87
2019-03-16T03:06:30.792Z,16.83
2019-03-16T03:11:32.318Z,13.63
2019-03-16T03:16:33.815Z,14.77
2019-03-16T03:21:35.372Z,14.97
2019-03-16T03:26:37.212Z,17.33
2019-03-16T03:31:38.788Z,9.43
2019-03-16T03:36:40.289Z,15.30
2019-03-16T03:41:41.834Z,12.77
2019-03-16T03:46:43.333Z,18.83
2019-03-16T03:51:44.972Z,16.87
2019-03-16T03:56:46.447Z,19.37
2019-03-16T04:01:47.972Z,15.20
2019-03-16T04:06:49.476Z,14.90
2019-03-16T04:11:51.024Z,15.03
2019-03-16T04:16:52.631Z,15.23
2019-03-16T04:21:54.156Z,17.93
2019-03-16T04:26:55.682Z,12.00
2019-03-16T04:31:57.212Z,14.60
2019-03-16T04:36:58.719Z,18.77
2019-03-16T04:42:00.294Z,18.10
2019-03-16T04:47:01.768Z,14.87
2019-03-16T04:52:03.292Z,20.70
2019-03-16T04:57:04.832Z,19.43
2019-03-16T05:02:06.357Z,17.90
2019-03-16T05:07:07.960Z,20.07
2019-03-16T05:12:09.472Z,22.70
2019-03-16T05:17:10.999Z,18.83
2019-03-16T05:22:12.510Z,19.03
2019-03-16T05:27:14.040Z,19.10
2019-03-16T05:32:15.573Z,17.17
2019-03-16T05:37:17.103Z,15.70
2019-03-16T05:42:18.603Z,12.37
2019-03-16T05:47:20.186Z,17.17
2019-03-16T05:52:21.662Z,14.77
2019-03-16T05:57:23.375Z,15.93
2019-03-16T06:02:24.888Z,14.40
2019-03-16T06:07:26.529Z,13.10
2019-03-16T06:12:28.011Z,17.77
2019-03-16T06:17:29.535Z,16.30
2019-03-16T06:22:31.102Z,22.53
2019-03-16T06:27:32.607Z,20.57
2019-03-16T06:32:35.148Z,28.30
2019-03-16T06:37:36.701Z,33.33
2019-03-16T06:42:38.546Z,32.57
2019-03-16T06:47:40.059Z,21.07
2019-03-16T06:52:41.679Z,25.47
2019-03-16T06:57:43.198Z,21.97
2019-03-16T07:02:45.736Z,25.23
2019-03-16T07:07:47.239Z,21.97
2019-03-16T07:12:48.776Z,24.00
2019-03-16T07:17:50.392Z,28.70
2019-03-16T07:22:51.938Z,28.20
2019-03-16T07:27:53.423Z,31.33
2019-03-16T07:32:54.952Z,26.60
2019-03-16T07:37:56.587Z,37.30
2019-03-16T07:42:58.115Z,28.53
2019-03-16T07:47:59.702Z,24.80
2019-03-16T07:53:01.285Z,25.03
2019-03-16T07:58:02.795Z,24.40
2019-03-16T08:03:04.293Z,25.27
2019-03-16T08:08:05.866Z,21.30
2019-03-16T08:13:07.352Z,19.93
2019-03-16T08:18:08.838Z,20.40
2019-03-16T08:23:10.348Z,22.23
2019-03-16T08:28:11.931Z,23.43
2019-03-16T08:33:13.410Z,19.70
2019-03-16T08:38:14.959Z,21.90
2019-03-16T08:43:16.565Z,15.97
2019-03-16T08:48:23.222Z,18.37
2019-03-16T08:53:22.959Z,21.80
2019-03-16T08:58:24.775Z,22.80
2019-03-16T09:03:26.269Z,23.07
2019-03-16T09:08:27.799Z,22.27
2019-03-16T09:13:29.322Z,16.17
2019-03-16T09:18:30.826Z,21.40
2019-03-16T09:23:32.413Z,19.67
2019-03-16T09:28:33.985Z,12.80
2019-03-16T09:33:35.541Z,16.80
2019-03-16T09:38:36.981Z,15.20
2019-03-16T09:43:38.635Z,12.63
2019-03-16T09:48:40.169Z,18.87
2019-03-16T09:53:41.692Z,14.00
2019-03-16T09:58:43.160Z,15.67
2019-03-16T10:03:44.811Z,16.80
2019-03-16T10:08:46.398Z,17.53
2019-03-16T10:13:47.946Z,17.60
2019-03-16T10:18:49.491Z,8.00
2019-03-16T10:23:51.016Z,14.93
2019-03-16T10:28:52.485Z,11.23
2019-03-16T10:33:54.016Z,9.60
2019-03-16T10:38:55.516Z,11.93
2019-03-16T10:43:57.112Z,12.60
2019-03-16T10:48:58.592Z,10.80
2019-03-16T10:54:00.169Z,12.53
2019-03-16T10:59:01.746Z,12.40
2019-03-16T11:04:03.255Z,9.97
2019-03-16T11:09:05.372Z,10.40
2019-03-16T11:14:06.864Z,11.53
2019-03-16T11:19:08.415Z,10.83
2019-03-16T11:24:09.940Z,11.60
2019-03-16T11:29:11.445Z,11.80
2019-03-16T11:34:15.050Z,11.60
2019-03-16T11:39:16.557Z,11.40
2019-03-16T11:44:18.071Z,14.23
2019-03-16T11:49:19.712Z,6.43
2019-03-16T11:54:21.209Z,6.60
2019-03-16T11:59:22.742Z,4.43
2019-03-16T12:04:24.332Z,4.43
2019-03-16T12:09:25.987Z,7.60
2019-03-16T12:14:27.506Z,5.27
2019-03-16T12:19:29.070Z,3.47
2019-03-16T12:24:32.690Z,4.30
2019-03-16T12:29:34.559Z,2.50
2019-03-16T12:34:36.329Z,5.87
2019-03-16T12:39:38.075Z,7.70
2019-03-16T12:44:39.625Z,4.97
2019-03-16T12:49:45.602Z,7.17
2019-03-16T12:54:47.205Z,2.37
2019-03-16T12:59:48.798Z,5.33
2019-03-16T13:04:50.308Z,4.23
2019-03-16T13:09:51.817Z,6.50
2019-03-16T13:14:53.346Z,5.20
2019-03-16T13:19:54.859Z,3.40
2019-03-16T13:24:56.400Z,5.57
2019-03-16T13:29:59.192Z,8.43
2019-03-16T13:35:00.933Z,5.60
2019-03-16T13:40:03.103Z,4.83
2019-03-16T13:45:04.839Z,3.53
2019-03-16T13:50:08.079Z,3.00
2019-03-16T13:55:09.915Z,8.17
2019-03-16T14:00:12.469Z,5.83
2019-03-16T14:05:14.281Z,6.07
2019-03-16T14:10:16.263Z,5.73
2019-03-16T14:15:17.791Z,8.03
2019-03-16T14:20:19.293Z,15.40
2019-03-16T14:25:20.807Z,6.97
2019-03-16T14:30:39.433Z,10.50
2019-03-16T14:35:25.736Z,9.03
2019-03-16T14:40:27.325Z,5.60
2019-03-16T14:45:40.716Z,7.13
2019-03-16T14:50:42.243Z,11.70
2019-03-16T14:55:43.755Z,5.20
2019-03-16T15:00:45.245Z,4.07
2019-03-16T15:05:48.871Z,5.53
2019-03-16T15:10:50.394Z,7.47
2019-03-16T15:15:51.942Z,5.70
2019-03-16T15:20:53.409Z,8.00
2019-03-16T15:26:03.244Z,5.90
2019-03-16T15:31:04.734Z,9.77
2019-03-16T15:36:06.265Z,8.20
2019-03-16T15:41:07.765Z,12.53
2019-03-16T15:46:09.323Z,8.20
2019-03-16T15:51:10.807Z,15.60
2019-03-16T15:56:12.341Z,11.60
2019-03-16T16:01:13.919Z,14.43
2019-03-16T16:06:15.475Z,15.83
2019-03-16T16:11:23.079Z,12.57
2019-03-16T16:16:24.561Z,9.27
2019-03-16T16:21:26.123Z,10.87
2019-03-16T16:26:27.621Z,9.00
2019-03-16T16:31:29.183Z,12.73
2019-03-16T16:36:30.785Z,8.10
2019-03-16T16:41:32.359Z,17.33
2019-03-16T16:46:40.743Z,10.60
2019-03-16T16:51:42.238Z,15.40
2019-03-16T16:56:43.809Z,10.67
2019-03-16T17:01:45.370Z,11.97
2019-03-16T17:06:46.861Z,8.00
2019-03-16T17:11:48.450Z,11.07
2019-03-16T17:16:50.034Z,6.33
2019-03-16T17:21:51.615Z,13.80
2019-03-16T17:26:53.155Z,11.63
2019-03-16T17:31:54.640Z,12.57
2019-03-16T17:36:56.238Z,10.47
2019-03-16T17:41:57.753Z,12.27
2019-03-16T17:46:59.265Z,11.83
2019-03-16T17:52:00.868Z,15.73
2019-03-16T17:57:02.472Z,10.00
2019-03-16T18:02:04.005Z,16.00
2019-03-16T18:07:05.662Z,17.53
2019-03-16T18:12:07.261Z,15.83
2019-03-16T18:17:08.830Z,16.30
2019-03-16T18:22:10.502Z,14.47
2019-03-16T18:27:12.115Z,19.80
2019-03-16T18:32:13.715Z,15.77
2019-03-16T18:37:15.284Z,12.47
2019-03-16T18:42:16.871Z,10.67
2019-03-16T18:47:18.552Z,11.60
2019-03-16T18:52:20.332Z,13.93
2019-03-16T18:57:22.125Z,15.77
2019-03-16T19:02:23.750Z,9.50
2019-03-16T19:07:25.564Z,12.37
2019-03-16T19:12:27.326Z,9.83
2019-03-16T19:17:28.870Z,11.07
2019-03-16T19:22:30.544Z,15.30
2019-03-16T19:27:32.141Z,9.43
2019-03-16T19:32:36.579Z,10.70
2019-03-16T19:37:37.185Z,14.70
2019-03-16T19:42:38.901Z,12.87
2019-03-16T19:47:40.590Z,12.93
2019-03-16T19:52:42.222Z,9.93
2019-03-16T19:57:43.975Z,11.00
2019-03-16T20:02:50.649Z,14.80
2019-03-16T20:07:49.236Z,10.97
2019-03-16T20:12:53.068Z,12.17
2019-03-16T20:17:54.648Z,10.30
2019-03-16T20:22:56.434Z,13.37
2019-03-16T20:27:58.263Z,13.83
2019-03-16T20:33:04.684Z,26.43
2019-03-16T20:38:04.748Z,16.10
2019-03-16T20:43:06.337Z,18.07
2019-03-16T20:48:07.875Z,12.33
2019-03-16T20:53:09.496Z,17.67
2019-03-16T20:58:11.538Z,18.07
2019-03-16T21:03:16.351Z,13.67
2019-03-16T21:08:17.084Z,20.33
2019-03-16T21:13:18.688Z,17.67
2019-03-16T21:18:20.275Z,17.27
2019-03-16T21:23:21.820Z,20.40
2019-03-16T21:28:23.603Z,18.90
2019-03-16T21:33:29.723Z,15.13
2019-03-16T21:38:31.264Z,17.43
2019-03-16T21:43:36.140Z,21.30
2019-03-16T21:48:37.781Z,21.10
2019-03-16T21:53:39.415Z,18.83
2019-03-16T21:58:41.604Z,18.23
2019-03-16T22:03:43.350Z,22.70
2019-03-16T22:08:44.997Z,21.77
2019-03-16T22:13:47.406Z,19.40
2019-03-16T22:18:48.937Z,17.17
2019-03-16T22:23:50.453Z,14.70
2019-03-16T22:28:51.926Z,17.57
2019-03-16T22:33:54.766Z,23.17
2019-03-16T22:38:56.594Z,15.70
2019-03-16T22:43:58.076Z,13.80
2019-03-16T22:49:00.660Z,18.07
2019-03-16T22:54:02.277Z,19.97
2019-03-16T22:59:03.822Z,15.30
2019-03-16T23:04:07.057Z,12.17
2019-03-16T23:09:08.828Z,18.83
2019-03-16T23:14:10.307Z,19.83
2019-03-16T23:19:11.891Z,16.87
2019-03-16T23:24:13.443Z,18.00
2019-03-16T23:29:14.993Z,13.67
2019-03-16T23:34:19.268Z,15.80
2019-03-16T23:39:20.303Z,20.33
2019-03-16T23:44:21.789Z,12.67
2019-03-16T23:49:23.315Z,13.60
2019-03-16T23:54:24.868Z,12.53
2019-03-16T23:59:26.431Z,9.87
